sensor_id;sensor_type;location;lat;lon;timestamp;P1;durP1;ratioP1;P2;durP2;ratioP2
44048;SDS011;29717;47.028;15.470;2023-01-25T00:00:03;36.87;;;24.10;;
44048;SDS011;29717;47.028;15.470;2023-01-25T00:02:30;35.70;;;24.47;;
44048;SDS011;29717;47.028;15.470;2023-01-25T00:04:56;50.23;;;24.10;;
44048;SDS011;29717;47.028;15.470;2023-01-25T00:07:25;55.70;;;25.97;;
44048;SDS011;29717;47.028;15.470;2023-01-25T00:09:51;47.03;;;26.80;;
44048;SDS011;29717;47.028;15.470;2023-01-25T00:12:18;38.33;;;24.40;;
44048;SDS011;29717;47.028;15.470;2023-01-25T00:14:45;57.47;;;26.73;;
44048;SDS011;29717;47.028;15.470;2023-01-25T00:17:12;173.63;;;30.40;;
44048;SDS011;29717;47.028;15.470;2023-01-25T00:19:39;37.50;;;23.03;;
44048;SDS011;29717;47.028;15.470;2023-01-25T00:22:05;45.27;;;26.00;;
44048;SDS011;29717;47.028;15.470;2023-01-25T00:24:33;66.80;;;25.17;;
44048;SDS011;29717;47.028;15.470;2023-01-25T00:27:00;40.67;;;25.30;;
44048;SDS011;29717;47.028;15.470;2023-01-25T00:29:27;48.47;;;25.63;;
44048;SDS011;29717;47.028;15.470;2023-01-25T00:31:57;57.27;;;24.77;;
44048;SDS011;29717;47.028;15.470;2023-01-25T00:37:18;41.27;;;23.97;;
44048;SDS011;29717;47.028;15.470;2023-01-25T00:39:47;47.33;;;24.00;;
44048;SDS011;29717;47.028;15.470;2023-01-25T00:42:15;30.87;;;22.90;;
44048;SDS011;29717;47.028;15.470;2023-01-25T00:44:42;43.70;;;23.80;;
44048;SDS011;29717;47.028;15.470;2023-01-25T00:47:09;67.33;;;25.20;;
44048;SDS011;29717;47.028;15.470;2023-01-25T00:49:36;30.33;;;22.30;;
44048;SDS011;29717;47.028;15.470;2023-01-25T00:52:03;37.37;;;22.83;;
44048;SDS011;29717;47.028;15.470;2023-01-25T00:54:30;45.27;;;22.77;;
44048;SDS011;29717;47.028;15.470;2023-01-25T00:56:58;63.57;;;24.63;;
44048;SDS011;29717;47.028;15.470;2023-01-25T00:59:25;39.87;;;23.40;;
44048;SDS011;29717;47.028;15.470;2023-01-25T01:01:52;61.93;;;24.70;;
44048;SDS011;29717;47.028;15.470;2023-01-25T01:04:19;52.57;;;22.33;;
44048;SDS011;29717;47.028;15.470;2023-01-25T01:06:49;31.17;;;22.57;;
44048;SDS011;29717;47.028;15.470;2023-01-25T01:09:17;42.27;;;21.83;;
44048;SDS011;29717;47.028;15.470;2023-01-25T01:11:44;55.00;;;22.43;;
44048;SDS011;29717;47.028;15.470;2023-01-25T01:14:14;112.67;;;26.43;;
44048;SDS011;29717;47.028;15.470;2023-01-25T01:16:41;122.57;;;25.83;;
44048;SDS011;29717;47.028;15.470;2023-01-25T01:19:08;86.17;;;25.07;;
44048;SDS011;29717;47.028;15.470;2023-01-25T01:21:35;63.73;;;23.00;;
44048;SDS011;29717;47.028;15.470;2023-01-25T01:24:02;31.20;;;20.77;;
44048;SDS011;29717;47.028;15.470;2023-01-25T01:26:29;44.10;;;22.27;;
44048;SDS011;29717;47.028;15.470;2023-01-25T01:28:56;47.93;;;22.27;;
44048;SDS011;29717;47.028;15.470;2023-01-25T01:31:25;35.80;;;20.73;;
44048;SDS011;29717;47.028;15.470;2023-01-25T01:33:52;33.13;;;20.70;;
44048;SDS011;29717;47.028;15.470;2023-01-25T01:36:20;72.93;;;24.07;;
44048;SDS011;29717;47.028;15.470;2023-01-25T01:38:48;66.63;;;24.47;;
44048;SDS011;29717;47.028;15.470;2023-01-25T01:41:14;46.97;;;21.80;;
44048;SDS011;29717;47.028;15.470;2023-01-25T01:43:41;45.50;;;21.70;;
44048;SDS011;29717;47.028;15.470;2023-01-25T01:46:09;39.10;;;21.00;;
44048;SDS011;29717;47.028;15.470;2023-01-25T01:48:39;60.50;;;22.20;;
44048;SDS011;29717;47.028;15.470;2023-01-25T01:51:09;42.97;;;21.30;;
44048;SDS011;29717;47.028;15.470;2023-01-25T01:53:38;48.03;;;24.57;;
44048;SDS011;29717;47.028;15.470;2023-01-25T01:56:06;55.87;;;23.40;;
44048;SDS011;29717;47.028;15.470;2023-01-25T01:58:36;28.67;;;20.03;;
44048;SDS011;29717;47.028;15.470;2023-01-25T02:01:03;27.57;;;20.07;;
44048;SDS011;29717;47.028;15.470;2023-01-25T02:03:30;25.43;;;20.60;;
44048;SDS011;29717;47.028;15.470;2023-01-25T02:05:59;30.13;;;20.00;;
44048;SDS011;29717;47.028;15.470;2023-01-25T02:08:27;30.20;;;21.30;;
44048;SDS011;29717;47.028;15.470;2023-01-25T02:10:56;56.43;;;26.43;;
44048;SDS011;29717;47.028;15.470;2023-01-25T02:13:37;31.10;;;23.00;;
44048;SDS011;29717;47.028;15.470;2023-01-25T02:16:13;58.60;;;25.83;;
44048;SDS011;29717;47.028;15.470;2023-01-25T02:18:42;42.40;;;24.30;;
44048;SDS011;29717;47.028;15.470;2023-01-25T02:21:10;44.20;;;24.87;;
44048;SDS011;29717;47.028;15.470;2023-01-25T02:23:38;33.90;;;23.47;;
44048;SDS011;29717;47.028;15.470;2023-01-25T02:26:14;33.77;;;22.40;;
44048;SDS011;29717;47.028;15.470;2023-01-25T02:28:42;35.67;;;24.50;;
44048;SDS011;29717;47.028;15.470;2023-01-25T02:31:11;34.70;;;24.00;;
44048;SDS011;29717;47.028;15.470;2023-01-25T02:33:38;29.83;;;23.30;;
44048;SDS011;29717;47.028;15.470;2023-01-25T02:36:14;42.70;;;26.43;;
44048;SDS011;29717;47.028;15.470;2023-01-25T02:38:44;31.30;;;22.57;;
44048;SDS011;29717;47.028;15.470;2023-01-25T02:41:14;28.30;;;20.87;;
44048;SDS011;29717;47.028;15.470;2023-01-25T02:43:43;29.07;;;20.87;;
44048;SDS011;29717;47.028;15.470;2023-01-25T02:46:12;30.90;;;22.30;;
44048;SDS011;29717;47.028;15.470;2023-01-25T02:48:40;38.57;;;24.47;;
44048;SDS011;29717;47.028;15.470;2023-01-25T02:51:07;39.40;;;24.77;;
44048;SDS011;29717;47.028;15.470;2023-01-25T02:53:35;32.47;;;23.80;;
44048;SDS011;29717;47.028;15.470;2023-01-25T02:56:02;30.43;;;22.43;;
44048;SDS011;29717;47.028;15.470;2023-01-25T02:58:30;32.63;;;23.47;;
44048;SDS011;29717;47.028;15.470;2023-01-25T03:01:00;32.83;;;23.23;;
44048;SDS011;29717;47.028;15.470;2023-01-25T03:03:27;26.93;;;21.13;;
44048;SDS011;29717;47.028;15.470;2023-01-25T03:05:54;27.53;;;20.90;;
44048;SDS011;29717;47.028;15.470;2023-01-25T03:08:21;26.53;;;21.00;;
44048;SDS011;29717;47.028;15.470;2023-01-25T03:10:48;24.67;;;19.47;;
44048;SDS011;29717;47.028;15.470;2023-01-25T03:13:14;25.33;;;19.60;;
44048;SDS011;29717;47.028;15.470;2023-01-25T03:15:42;23.07;;;18.40;;
44048;SDS011;29717;47.028;15.470;2023-01-25T03:18:09;27.33;;;19.73;;
44048;SDS011;29717;47.028;15.470;2023-01-25T03:20:36;22.90;;;18.67;;
44048;SDS011;29717;47.028;15.470;2023-01-25T03:23:02;22.80;;;19.47;;
44048;SDS011;29717;47.028;15.470;2023-01-25T03:25:29;23.80;;;17.80;;
44048;SDS011;29717;47.028;15.470;2023-01-25T03:27:56;22.30;;;17.40;;
44048;SDS011;29717;47.028;15.470;2023-01-25T03:30:23;21.47;;;17.00;;
44048;SDS011;29717;47.028;15.470;2023-01-25T03:32:52;25.70;;;17.87;;
44048;SDS011;29717;47.028;15.470;2023-01-25T03:35:19;20.97;;;17.43;;
44048;SDS011;29717;47.028;15.470;2023-01-25T03:37:45;22.47;;;17.53;;
44048;SDS011;29717;47.028;15.470;2023-01-25T03:40:12;28.00;;;18.33;;
44048;SDS011;29717;47.028;15.470;2023-01-25T03:42:39;23.53;;;17.47;;
44048;SDS011;29717;47.028;15.470;2023-01-25T03:45:06;20.90;;;17.07;;
44048;SDS011;29717;47.028;15.470;2023-01-25T03:47:33;29.07;;;19.53;;
44048;SDS011;29717;47.028;15.470;2023-01-25T03:50:02;27.27;;;19.10;;
44048;SDS011;29717;47.028;15.470;2023-01-25T03:52:34;25.70;;;19.20;;
44048;SDS011;29717;47.028;15.470;2023-01-25T03:55:05;30.03;;;20.10;;
44048;SDS011;29717;47.028;15.470;2023-01-25T03:57:33;33.37;;;20.03;;
44048;SDS011;29717;47.028;15.470;2023-01-25T03:59:59;28.63;;;20.23;;
44048;SDS011;29717;47.028;15.470;2023-01-25T04:02:26;35.10;;;22.50;;
44048;SDS011;29717;47.028;15.470;2023-01-25T04:04:53;30.43;;;21.67;;
44048;SDS011;29717;47.028;15.470;2023-01-25T04:07:21;35.63;;;20.87;;
44048;SDS011;29717;47.028;15.470;2023-01-25T04:09:48;31.67;;;21.50;;
44048;SDS011;29717;47.028;15.470;2023-01-25T04:12:15;29.83;;;20.60;;
44048;SDS011;29717;47.028;15.470;2023-01-25T04:14:42;29.97;;;21.27;;
44048;SDS011;29717;47.028;15.470;2023-01-25T04:17:09;29.17;;;20.13;;
44048;SDS011;29717;47.028;15.470;2023-01-25T04:19:37;34.93;;;21.67;;
44048;SDS011;29717;47.028;15.470;2023-01-25T04:22:04;27.43;;;20.63;;
44048;SDS011;29717;47.028;15.470;2023-01-25T04:24:32;28.77;;;20.87;;
44048;SDS011;29717;47.028;15.470;2023-01-25T04:26:59;29.07;;;20.93;;
44048;SDS011;29717;47.028;15.470;2023-01-25T04:29:25;24.93;;;19.73;;
44048;SDS011;29717;47.028;15.470;2023-01-25T04:31:52;28.30;;;20.13;;
44048;SDS011;29717;47.028;15.470;2023-01-25T04:34:19;30.90;;;21.13;;
44048;SDS011;29717;47.028;15.470;2023-01-25T04:36:46;30.23;;;21.10;;
44048;SDS011;29717;47.028;15.470;2023-01-25T04:39:13;30.57;;;21.23;;
44048;SDS011;29717;47.028;15.470;2023-01-25T04:41:41;31.07;;;22.13;;
44048;SDS011;29717;47.028;15.470;2023-01-25T04:44:08;34.63;;;23.40;;
44048;SDS011;29717;47.028;15.470;2023-01-25T04:46:35;40.13;;;24.27;;
44048;SDS011;29717;47.028;15.470;2023-01-25T04:49:02;31.93;;;22.90;;
44048;SDS011;29717;47.028;15.470;2023-01-25T04:51:29;31.23;;;21.97;;
44048;SDS011;29717;47.028;15.470;2023-01-25T04:53:55;33.27;;;23.20;;
44048;SDS011;29717;47.028;15.470;2023-01-25T04:56:22;34.03;;;22.83;;
44048;SDS011;29717;47.028;15.470;2023-01-25T04:58:51;32.80;;;23.07;;
44048;SDS011;29717;47.028;15.470;2023-01-25T05:01:18;32.90;;;22.97;;
44048;SDS011;29717;47.028;15.470;2023-01-25T05:03:45;33.10;;;22.67;;
44048;SDS011;29717;47.028;15.470;2023-01-25T05:06:12;28.93;;;22.07;;
44048;SDS011;29717;47.028;15.470;2023-01-25T05:08:38;28.43;;;21.07;;
44048;SDS011;29717;47.028;15.470;2023-01-25T05:11:05;31.37;;;23.10;;
44048;SDS011;29717;47.028;15.470;2023-01-25T05:13:32;28.70;;;21.30;;
44048;SDS011;29717;47.028;15.470;2023-01-25T05:16:01;32.33;;;21.30;;
44048;SDS011;29717;47.028;15.470;2023-01-25T05:18:28;28.87;;;20.97;;
44048;SDS011;29717;47.028;15.470;2023-01-25T05:20:55;29.03;;;22.27;;
44048;SDS011;29717;47.028;15.470;2023-01-25T05:23:22;31.87;;;22.60;;
44048;SDS011;29717;47.028;15.470;2023-01-25T05:25:48;30.53;;;22.27;;
44048;SDS011;29717;47.028;15.470;2023-01-25T05:28:33;33.20;;;23.13;;
44048;SDS011;29717;47.028;15.470;2023-01-25T05:31:03;31.17;;;22.20;;
44048;SDS011;29717;47.028;15.470;2023-01-25T05:33:30;34.17;;;23.40;;
44048;SDS011;29717;47.028;15.470;2023-01-25T05:35:57;32.50;;;24.27;;
44048;SDS011;29717;47.028;15.470;2023-01-25T05:38:24;32.80;;;23.80;;
44048;SDS011;29717;47.028;15.470;2023-01-25T05:40:51;31.10;;;23.13;;
44048;SDS011;29717;47.028;15.470;2023-01-25T05:43:17;29.50;;;21.77;;
44048;SDS011;29717;47.028;15.470;2023-01-25T05:45:50;31.93;;;22.10;;
44048;SDS011;29717;47.028;15.470;2023-01-25T05:48:18;29.13;;;21.33;;
44048;SDS011;29717;47.028;15.470;2023-01-25T05:50:45;27.43;;;21.13;;
44048;SDS011;29717;47.028;15.470;2023-01-25T05:53:12;28.37;;;21.90;;
44048;SDS011;29717;47.028;15.470;2023-01-25T05:55:39;30.37;;;21.77;;
44048;SDS011;29717;47.028;15.470;2023-01-25T05:58:06;30.17;;;21.23;;
44048;SDS011;29717;47.028;15.470;2023-01-25T06:00:33;30.57;;;21.50;;
44048;SDS011;29717;47.028;15.470;2023-01-25T06:03:00;26.50;;;20.93;;
44048;SDS011;29717;47.028;15.470;2023-01-25T06:05:28;28.03;;;21.33;;
44048;SDS011;29717;47.028;15.470;2023-01-25T06:07:56;27.37;;;20.57;;
44048;SDS011;29717;47.028;15.470;2023-01-25T06:10:23;30.27;;;20.80;;
44048;SDS011;29717;47.028;15.470;2023-01-25T06:12:56;25.40;;;20.67;;
44048;SDS011;29717;47.028;15.470;2023-01-25T06:15:23;26.70;;;19.87;;
44048;SDS011;29717;47.028;15.470;2023-01-25T06:17:53;29.33;;;19.73;;
44048;SDS011;29717;47.028;15.470;2023-01-25T06:20:20;26.77;;;20.03;;
44048;SDS011;29717;47.028;15.470;2023-01-25T06:22:49;26.87;;;19.60;;
44048;SDS011;29717;47.028;15.470;2023-01-25T06:25:16;28.63;;;20.20;;
44048;SDS011;29717;47.028;15.470;2023-01-25T06:27:43;28.80;;;19.83;;
44048;SDS011;29717;47.028;15.470;2023-01-25T06:30:10;26.67;;;18.67;;
44048;SDS011;29717;47.028;15.470;2023-01-25T06:32:37;27.70;;;19.40;;
44048;SDS011;29717;47.028;15.470;2023-01-25T06:35:04;23.13;;;18.30;;
44048;SDS011;29717;47.028;15.470;2023-01-25T06:37:31;24.77;;;19.40;;
44048;SDS011;29717;47.028;15.470;2023-01-25T06:39:59;28.60;;;19.27;;
44048;SDS011;29717;47.028;15.470;2023-01-25T06:42:26;25.93;;;19.73;;
44048;SDS011;29717;47.028;15.470;2023-01-25T06:44:53;27.37;;;18.83;;
44048;SDS011;29717;47.028;15.470;2023-01-25T06:47:20;26.37;;;18.63;;
44048;SDS011;29717;47.028;15.470;2023-01-25T06:49:46;27.90;;;19.03;;
44048;SDS011;29717;47.028;15.470;2023-01-25T06:52:13;24.97;;;18.00;;
44048;SDS011;29717;47.028;15.470;2023-01-25T06:54:40;28.27;;;18.50;;
44048;SDS011;29717;47.028;15.470;2023-01-25T06:57:09;25.00;;;18.67;;
44048;SDS011;29717;47.028;15.470;2023-01-25T06:59:36;24.00;;;17.70;;
44048;SDS011;29717;47.028;15.470;2023-01-25T07:02:03;31.93;;;18.37;;
44048;SDS011;29717;47.028;15.470;2023-01-25T07:04:30;28.40;;;18.77;;
44048;SDS011;29717;47.028;15.470;2023-01-25T07:06:57;26.67;;;19.87;;
44048;SDS011;29717;47.028;15.470;2023-01-25T07:09:24;26.17;;;18.43;;
44048;SDS011;29717;47.028;15.470;2023-01-25T07:11:51;28.57;;;18.67;;
44048;SDS011;29717;47.028;15.470;2023-01-25T07:14:19;28.23;;;20.10;;
44048;SDS011;29717;47.028;15.470;2023-01-25T07:16:46;26.17;;;18.83;;
44048;SDS011;29717;47.028;15.470;2023-01-25T07:19:13;26.67;;;18.40;;
44048;SDS011;29717;47.028;15.470;2023-01-25T07:21:40;25.10;;;18.97;;
44048;SDS011;29717;47.028;15.470;2023-01-25T07:24:09;28.87;;;19.10;;
44048;SDS011;29717;47.028;15.470;2023-01-25T07:26:38;23.70;;;17.50;;
44048;SDS011;29717;47.028;15.470;2023-01-25T07:29:05;30.30;;;18.63;;
44048;SDS011;29717;47.028;15.470;2023-01-25T07:31:35;26.60;;;18.07;;
44048;SDS011;29717;47.028;15.470;2023-01-25T07:34:02;24.57;;;18.60;;
44048;SDS011;29717;47.028;15.470;2023-01-25T07:36:29;34.10;;;19.27;;
44048;SDS011;29717;47.028;15.470;2023-01-25T07:38:56;26.57;;;18.73;;
44048;SDS011;29717;47.028;15.470;2023-01-25T07:41:24;27.33;;;18.67;;
44048;SDS011;29717;47.028;15.470;2023-01-25T07:43:51;25.97;;;17.90;;
44048;SDS011;29717;47.028;15.470;2023-01-25T07:46:18;29.70;;;20.13;;
44048;SDS011;29717;47.028;15.470;2023-01-25T07:48:47;25.63;;;18.87;;
44048;SDS011;29717;47.028;15.470;2023-01-25T07:51:14;33.73;;;21.23;;
44048;SDS011;29717;47.028;15.470;2023-01-25T07:53:52;33.60;;;21.83;;
44048;SDS011;29717;47.028;15.470;2023-01-25T07:56:20;31.70;;;21.50;;
44048;SDS011;29717;47.028;15.470;2023-01-25T07:58:47;39.90;;;25.00;;
44048;SDS011;29717;47.028;15.470;2023-01-25T08:01:14;37.40;;;24.67;;
44048;SDS011;29717;47.028;15.470;2023-01-25T08:03:41;34.33;;;22.87;;
44048;SDS011;29717;47.028;15.470;2023-01-25T08:06:10;27.47;;;17.00;;
44048;SDS011;29717;47.028;15.470;2023-01-25T08:08:38;32.03;;;20.07;;
44048;SDS011;29717;47.028;15.470;2023-01-25T08:11:08;22.70;;;16.77;;
44048;SDS011;29717;47.028;15.470;2023-01-25T08:13:37;24.57;;;17.00;;
44048;SDS011;29717;47.028;15.470;2023-01-25T08:16:04;23.13;;;17.47;;
44048;SDS011;29717;47.028;15.470;2023-01-25T08:18:31;24.00;;;16.50;;
44048;SDS011;29717;47.028;15.470;2023-01-25T08:20:59;24.87;;;16.70;;
44048;SDS011;29717;47.028;15.470;2023-01-25T08:23:28;24.30;;;17.03;;
44048;SDS011;29717;47.028;15.470;2023-01-25T08:25:54;24.30;;;17.03;;
44048;SDS011;29717;47.028;15.470;2023-01-25T08:28:22;24.93;;;16.47;;
44048;SDS011;29717;47.028;15.470;2023-01-25T08:30:49;26.47;;;17.87;;
44048;SDS011;29717;47.028;15.470;2023-01-25T08:33:15;25.30;;;17.50;;
44048;SDS011;29717;47.028;15.470;2023-01-25T08:35:42;24.30;;;17.63;;
44048;SDS011;29717;47.028;15.470;2023-01-25T08:38:19;23.87;;;16.80;;
44048;SDS011;29717;47.028;15.470;2023-01-25T08:40:48;23.27;;;17.37;;
44048;SDS011;29717;47.028;15.470;2023-01-25T08:43:15;24.20;;;17.30;;
44048;SDS011;29717;47.028;15.470;2023-01-25T08:45:42;24.37;;;18.00;;
44048;SDS011;29717;47.028;15.470;2023-01-25T08:48:09;24.47;;;18.30;;
44048;SDS011;29717;47.028;15.470;2023-01-25T08:50:44;27.33;;;18.80;;
44048;SDS011;29717;47.028;15.470;2023-01-25T08:53:11;25.33;;;17.63;;
44048;SDS011;29717;47.028;15.470;2023-01-25T08:55:37;24.37;;;17.90;;
44048;SDS011;29717;47.028;15.470;2023-01-25T08:58:07;26.40;;;17.60;;
44048;SDS011;29717;47.028;15.470;2023-01-25T09:00:35;23.63;;;17.57;;
44048;SDS011;29717;47.028;15.470;2023-01-25T09:03:02;26.20;;;18.50;;
44048;SDS011;29717;47.028;15.470;2023-01-25T09:05:29;24.77;;;18.67;;
44048;SDS011;29717;47.028;15.470;2023-01-25T09:07:57;22.67;;;16.97;;
44048;SDS011;29717;47.028;15.470;2023-01-25T09:10:24;25.67;;;17.77;;
44048;SDS011;29717;47.028;15.470;2023-01-25T09:12:51;24.03;;;17.67;;
44048;SDS011;29717;47.028;15.470;2023-01-25T09:15:19;25.00;;;17.27;;
44048;SDS011;29717;47.028;15.470;2023-01-25T09:17:49;28.50;;;18.77;;
44048;SDS011;29717;47.028;15.470;2023-01-25T09:20:16;23.93;;;17.67;;
44048;SDS011;29717;47.028;15.470;2023-01-25T09:22:42;23.37;;;17.03;;
44048;SDS011;29717;47.028;15.470;2023-01-25T09:25:09;20.73;;;16.83;;
44048;SDS011;29717;47.028;15.470;2023-01-25T09:27:36;21.47;;;16.00;;
44048;SDS011;29717;47.028;15.470;2023-01-25T09:30:03;22.83;;;17.63;;
44048;SDS011;29717;47.028;15.470;2023-01-25T09:32:35;21.77;;;16.20;;
44048;SDS011;29717;47.028;15.470;2023-01-25T09:35:03;21.33;;;16.57;;
44048;SDS011;29717;47.028;15.470;2023-01-25T09:37:30;23.30;;;16.13;;
44048;SDS011;29717;47.028;15.470;2023-01-25T09:39:57;23.20;;;16.33;;
44048;SDS011;29717;47.028;15.470;2023-01-25T09:42:34;21.70;;;15.97;;
44048;SDS011;29717;47.028;15.470;2023-01-25T09:47:50;21.70;;;16.07;;
44048;SDS011;29717;47.028;15.470;2023-01-25T09:50:23;20.87;;;16.00;;
44048;SDS011;29717;47.028;15.470;2023-01-25T09:55:35;26.03;;;17.00;;
44048;SDS011;29717;47.028;15.470;2023-01-25T09:58:02;28.00;;;17.73;;
44048;SDS011;29717;47.028;15.470;2023-01-25T10:00:30;24.57;;;16.53;;
44048;SDS011;29717;47.028;15.470;2023-01-25T10:03:01;25.57;;;17.87;;
44048;SDS011;29717;47.028;15.470;2023-01-25T10:05:31;25.97;;;18.03;;
44048;SDS011;29717;47.028;15.470;2023-01-25T10:08:02;24.20;;;18.03;;
44048;SDS011;29717;47.028;15.470;2023-01-25T10:10:32;25.07;;;17.30;;
44048;SDS011;29717;47.028;15.470;2023-01-25T10:13:00;28.90;;;19.43;;
44048;SDS011;29717;47.028;15.470;2023-01-25T10:15:29;27.03;;;19.13;;
44048;SDS011;29717;47.028;15.470;2023-01-25T10:17:58;29.13;;;18.93;;
44048;SDS011;29717;47.028;15.470;2023-01-25T10:20:30;25.97;;;18.63;;
44048;SDS011;29717;47.028;15.470;2023-01-25T10:23:05;29.77;;;19.23;;
44048;SDS011;29717;47.028;15.470;2023-01-25T10:25:34;26.07;;;18.57;;
44048;SDS011;29717;47.028;15.470;2023-01-25T10:28:11;26.10;;;18.03;;
44048;SDS011;29717;47.028;15.470;2023-01-25T10:30:44;25.80;;;19.07;;
44048;SDS011;29717;47.028;15.470;2023-01-25T10:33:13;28.60;;;19.57;;
44048;SDS011;29717;47.028;15.470;2023-01-25T10:35:42;28.13;;;19.80;;
44048;SDS011;29717;47.028;15.470;2023-01-25T10:38:10;26.83;;;18.40;;
44048;SDS011;29717;47.028;15.470;2023-01-25T10:40:39;26.97;;;18.53;;
44048;SDS011;29717;47.028;15.470;2023-01-25T10:43:10;27.73;;;19.10;;
44048;SDS011;29717;47.028;15.470;2023-01-25T10:45:38;27.10;;;18.13;;
44048;SDS011;29717;47.028;15.470;2023-01-25T10:48:09;25.93;;;18.40;;
44048;SDS011;29717;47.028;15.470;2023-01-25T10:50:42;23.43;;;17.63;;
44048;SDS011;29717;47.028;15.470;2023-01-25T10:53:22;27.73;;;19.13;;
44048;SDS011;29717;47.028;15.470;2023-01-25T10:55:59;28.63;;;19.83;;
44048;SDS011;29717;47.028;15.470;2023-01-25T10:58:31;25.33;;;19.33;;
44048;SDS011;29717;47.028;15.470;2023-01-25T11:00:58;27.20;;;19.30;;
44048;SDS011;29717;47.028;15.470;2023-01-25T11:03:31;27.33;;;20.20;;
44048;SDS011;29717;47.028;15.470;2023-01-25T11:05:59;31.80;;;20.73;;
44048;SDS011;29717;47.028;15.470;2023-01-25T11:08:32;28.27;;;20.60;;
44048;SDS011;29717;47.028;15.470;2023-01-25T11:10:59;27.90;;;18.77;;
44048;SDS011;29717;47.028;15.470;2023-01-25T11:13:37;30.60;;;20.20;;
44048;SDS011;29717;47.028;15.470;2023-01-25T11:16:13;27.90;;;20.63;;
44048;SDS011;29717;47.028;15.470;2023-01-25T11:18:48;28.00;;;19.53;;
44048;SDS011;29717;47.028;15.470;2023-01-25T11:21:16;27.53;;;19.20;;
44048;SDS011;29717;47.028;15.470;2023-01-25T11:23:58;26.23;;;18.53;;
44048;SDS011;29717;47.028;15.470;2023-01-25T11:26:25;26.33;;;18.30;;
44048;SDS011;29717;47.028;15.470;2023-01-25T11:29:06;26.17;;;18.60;;
44048;SDS011;29717;47.028;15.470;2023-01-25T11:31:33;30.37;;;20.87;;
44048;SDS011;29717;47.028;15.470;2023-01-25T11:34:00;28.30;;;19.70;;
44048;SDS011;29717;47.028;15.470;2023-01-25T11:36:29;26.27;;;18.87;;
44048;SDS011;29717;47.028;15.470;2023-01-25T11:39:13;27.50;;;18.97;;
44048;SDS011;29717;47.028;15.470;2023-01-25T11:41:48;28.13;;;19.20;;
44048;SDS011;29717;47.028;15.470;2023-01-25T11:44:25;25.90;;;19.23;;
44048;SDS011;29717;47.028;15.470;2023-01-25T11:46:58;30.27;;;19.80;;
44048;SDS011;29717;47.028;15.470;2023-01-25T11:49:33;28.87;;;19.80;;
44048;SDS011;29717;47.028;15.470;2023-01-25T11:52:06;28.93;;;21.17;;
44048;SDS011;29717;47.028;15.470;2023-01-25T11:54:43;28.40;;;21.03;;
44048;SDS011;29717;47.028;15.470;2023-01-25T11:57:16;30.10;;;19.77;;
44048;SDS011;29717;47.028;15.470;2023-01-25T11:59:56;26.00;;;19.63;;
44048;SDS011;29717;47.028;15.470;2023-01-25T12:02:42;27.63;;;19.50;;
44048;SDS011;29717;47.028;15.470;2023-01-25T12:05:31;28.50;;;19.40;;
44048;SDS011;29717;47.028;15.470;2023-01-25T12:08:03;25.77;;;19.10;;
44048;SDS011;29717;47.028;15.470;2023-01-25T12:10:41;27.23;;;19.67;;
44048;SDS011;29717;47.028;15.470;2023-01-25T12:13:14;27.53;;;20.17;;
44048;SDS011;29717;47.028;15.470;2023-01-25T12:15:52;25.60;;;18.47;;
44048;SDS011;29717;47.028;15.470;2023-01-25T12:18:31;26.57;;;19.33;;
44048;SDS011;29717;47.028;15.470;2023-01-25T12:21:03;24.00;;;18.53;;
44048;SDS011;29717;47.028;15.470;2023-01-25T12:23:33;26.67;;;18.40;;
44048;SDS011;29717;47.028;15.470;2023-01-25T12:26:08;28.00;;;20.27;;
44048;SDS011;29717;47.028;15.470;2023-01-25T12:28:38;27.33;;;19.53;;
44048;SDS011;29717;47.028;15.470;2023-01-25T12:31:10;30.17;;;19.97;;
44048;SDS011;29717;47.028;15.470;2023-01-25T12:33:39;26.27;;;19.13;;
44048;SDS011;29717;47.028;15.470;2023-01-25T12:36:10;30.07;;;20.70;;
44048;SDS011;29717;47.028;15.470;2023-01-25T12:38:40;30.00;;;22.10;;
44048;SDS011;29717;47.028;15.470;2023-01-25T12:41:17;34.47;;;22.23;;
44048;SDS011;29717;47.028;15.470;2023-01-25T12:43:47;32.33;;;22.53;;
44048;SDS011;29717;47.028;15.470;2023-01-25T12:46:16;30.63;;;21.67;;
44048;SDS011;29717;47.028;15.470;2023-01-25T12:48:48;29.97;;;21.63;;
44048;SDS011;29717;47.028;15.470;2023-01-25T12:51:16;32.70;;;23.40;;
44048;SDS011;29717;47.028;15.470;2023-01-25T12:53:44;34.30;;;24.00;;
44048;SDS011;29717;47.028;15.470;2023-01-25T12:56:16;36.00;;;23.70;;
44048;SDS011;29717;47.028;15.470;2023-01-25T12:58:46;33.07;;;22.13;;
44048;SDS011;29717;47.028;15.470;2023-01-25T13:01:18;33.60;;;22.77;;
44048;SDS011;29717;47.028;15.470;2023-01-25T13:03:52;35.20;;;27.90;;
44048;SDS011;29717;47.028;15.470;2023-01-25T13:06:24;61.97;;;40.83;;
44048;SDS011;29717;47.028;15.470;2023-01-25T13:08:54;59.90;;;39.90;;
44048;SDS011;29717;47.028;15.470;2023-01-25T13:11:26;92.17;;;61.60;;
44048;SDS011;29717;47.028;15.470;2023-01-25T13:16:39;174.70;;;101.20;;
44048;SDS011;29717;47.028;15.470;2023-01-25T13:19:20;102.90;;;62.53;;
44048;SDS011;29717;47.028;15.470;2023-01-25T13:21:47;29.53;;;19.93;;
44048;SDS011;29717;47.028;15.470;2023-01-25T13:24:18;23.87;;;17.90;;
44048;SDS011;29717;47.028;15.470;2023-01-25T13:26:47;27.80;;;20.10;;
44048;SDS011;29717;47.028;15.470;2023-01-25T13:32:00;32.10;;;24.10;;
44048;SDS011;29717;47.028;15.470;2023-01-25T13:37:15;29.23;;;20.63;;
44048;SDS011;29717;47.028;15.470;2023-01-25T13:39:42;44.23;;;27.27;;
44048;SDS011;29717;47.028;15.470;2023-01-25T13:42:19;59.50;;;35.63;;
44048;SDS011;29717;47.028;15.470;2023-01-25T13:44:47;75.57;;;41.73;;
44048;SDS011;29717;47.028;15.470;2023-01-25T13:47:15;26.93;;;18.57;;
44048;SDS011;29717;47.028;15.470;2023-01-25T13:49:43;32.40;;;22.90;;
44048;SDS011;29717;47.028;15.470;2023-01-25T13:52:13;40.43;;;25.83;;
44048;SDS011;29717;47.028;15.470;2023-01-25T13:54:41;24.10;;;16.30;;
44048;SDS011;29717;47.028;15.470;2023-01-25T13:57:10;20.53;;;14.90;;
44048;SDS011;29717;47.028;15.470;2023-01-25T13:59:38;18.23;;;13.90;;
44048;SDS011;29717;47.028;15.470;2023-01-25T14:02:09;19.77;;;14.13;;
44048;SDS011;29717;47.028;15.470;2023-01-25T14:04:38;20.97;;;15.10;;
44048;SDS011;29717;47.028;15.470;2023-01-25T14:07:05;29.03;;;19.93;;
44048;SDS011;29717;47.028;15.470;2023-01-25T14:09:34;49.67;;;31.30;;
44048;SDS011;29717;47.028;15.470;2023-01-25T14:12:02;27.10;;;16.27;;
44048;SDS011;29717;47.028;15.470;2023-01-25T14:14:31;23.77;;;16.53;;
44048;SDS011;29717;47.028;15.470;2023-01-25T14:17:09;59.53;;;36.67;;
44048;SDS011;29717;47.028;15.470;2023-01-25T14:19:39;75.20;;;51.37;;
44048;SDS011;29717;47.028;15.470;2023-01-25T14:22:12;51.90;;;37.23;;
44048;SDS011;29717;47.028;15.470;2023-01-25T14:24:39;32.33;;;24.13;;
44048;SDS011;29717;47.028;15.470;2023-01-25T14:27:09;39.27;;;28.80;;
44048;SDS011;29717;47.028;15.470;2023-01-25T14:29:37;34.27;;;26.57;;
44048;SDS011;29717;47.028;15.470;2023-01-25T14:32:05;25.93;;;20.00;;
44048;SDS011;29717;47.028;15.470;2023-01-25T14:34:32;23.00;;;15.20;;